createdAt,value
2023-02-15T00:01:37.522Z,61.53
2023-02-15T00:04:04.932Z,61.59
2023-02-15T00:06:31.808Z,61.76
2023-02-15T00:08:58.422Z,61.79
2023-02-15T00:11:43.212Z,61.72
2023-02-15T00:14:11.078Z,61.24
2023-02-15T00:16:38.506Z,61.43
2023-02-15T00:19:05.717Z,61.30
2023-02-15T00:21:33.713Z,61.71
2023-02-15T00:24:01.863Z,61.28
2023-02-15T00:26:28.619Z,61.72
2023-02-15T00:28:56.079Z,61.73
2023-02-15T00:31:22.811Z,61.75
2023-02-15T00:33:49.258Z,61.98
2023-02-15T00:36:15.708Z,62.21
2023-02-15T00:38:42.120Z,62.10
2023-02-15T00:41:09.804Z,62.06
2023-02-15T00:43:37.469Z,62.10
2023-02-15T00:46:05.768Z,61.94
2023-02-15T00:48:32.174Z,61.88
2023-02-15T00:51:00.563Z,61.70
2023-02-15T00:55:54.848Z,61.50
2023-02-15T00:58:21.489Z,61.57
2023-02-15T01:00:48.656Z,61.71
2023-02-15T01:03:17.450Z,61.91
2023-02-15T01:05:43.868Z,61.49
2023-02-15T01:08:10.596Z,61.23
2023-02-15T01:10:37.552Z,61.52
2023-02-15T01:13:05.858Z,61.42
2023-02-15T01:15:34.706Z,61.45
2023-02-15T01:18:01.040Z,62.02
2023-02-15T01:20:29.327Z,61.63
2023-02-15T01:22:57.510Z,61.79
2023-02-15T01:25:26.103Z,61.72
2023-02-15T01:27:52.551Z,61.86
2023-02-15T01:30:19.323Z,61.83
2023-02-15T01:32:45.835Z,61.42
2023-02-15T01:35:12.760Z,61.71
2023-02-15T01:37:39.171Z,61.79
2023-02-15T01:40:08.398Z,61.77
2023-02-15T01:42:34.939Z,61.55
2023-02-15T01:45:04.533Z,61.81
2023-02-15T01:47:35.457Z,61.71
2023-02-15T01:50:19.622Z,62.08
2023-02-15T01:52:56.008Z,61.60
2023-02-15T01:55:26.100Z,61.41
2023-02-15T01:57:53.045Z,61.81
2023-02-15T02:00:20.089Z,61.98
2023-02-15T02:02:49.169Z,61.97
2023-02-15T02:05:15.641Z,61.86
2023-02-15T02:07:47.521Z,61.91
2023-02-15T02:10:18.142Z,62.05
2023-02-15T02:12:46.728Z,62.34
2023-02-15T02:15:14.197Z,62.32
2023-02-15T02:18:00.868Z,62.40
2023-02-15T02:21:04.791Z,62.49
2023-02-15T02:23:54.691Z,62.27
2023-02-15T02:26:29.517Z,61.75
2023-02-15T02:29:23.201Z,61.85
2023-02-15T02:32:07.823Z,61.88
2023-02-15T02:34:49.797Z,61.68
2023-02-15T02:37:35.420Z,61.72
2023-02-15T02:40:11.997Z,61.79
2023-02-15T02:42:42.529Z,61.73
2023-02-15T02:45:26.999Z,61.81
2023-02-15T02:47:59.982Z,61.34
2023-02-15T02:50:29.597Z,61.72
2023-02-15T02:52:57.848Z,61.74
2023-02-15T02:55:31.682Z,61.87
2023-02-15T02:58:20.422Z,62.02
2023-02-15T03:00:53.110Z,61.59
2023-02-15T03:03:30.599Z,61.43
2023-02-15T03:06:01.868Z,61.42
2023-02-15T03:08:36.751Z,61.77
2023-02-15T03:11:05.148Z,61.44
2023-02-15T03:13:32.912Z,61.10
2023-02-15T03:16:20.468Z,61.22
2023-02-15T03:18:58.088Z,60.99
2023-02-15T03:21:50.584Z,61.48
2023-02-15T03:24:22.967Z,61.08
2023-02-15T03:26:52.719Z,61.07
2023-02-15T03:29:22.791Z,61.40
2023-02-15T03:31:54.990Z,61.85
2023-02-15T03:34:21.728Z,61.60
2023-02-15T03:37:25.614Z,62.11
2023-02-15T03:40:21.257Z,62.02
2023-02-15T03:42:53.336Z,62.01
2023-02-15T03:45:27.426Z,62.00
2023-02-15T03:47:57.231Z,61.62
2023-02-15T03:50:55.621Z,61.75
2023-02-15T03:53:24.302Z,61.94
2023-02-15T03:55:55.435Z,61.68
2023-02-15T03:58:40.485Z,61.78
2023-02-15T04:01:53.360Z,61.68
2023-02-15T04:04:25.505Z,61.79
2023-02-15T04:06:51.967Z,62.09
2023-02-15T04:09:36.804Z,61.79
2023-02-15T04:12:03.368Z,61.95
2023-02-15T04:14:48.522Z,61.80
2023-02-15T04:17:14.958Z,61.67
2023-02-15T04:19:59.917Z,61.90
2023-02-15T04:22:44.607Z,61.67
2023-02-15T04:25:13.762Z,61.57
2023-02-15T04:27:43.505Z,61.63
2023-02-15T04:30:12.178Z,61.49
2023-02-15T04:32:39.420Z,61.78
2023-02-15T04:35:07.501Z,61.35
2023-02-15T04:37:34.832Z,61.72
2023-02-15T04:40:01.229Z,61.90
2023-02-15T04:42:27.727Z,61.56
2023-02-15T04:44:55.316Z,61.82
2023-02-15T04:47:21.920Z,62.11
2023-02-15T04:49:48.369Z,62.14
2023-02-15T04:52:14.904Z,62.27
2023-02-15T04:54:41.552Z,62.69
2023-02-15T04:57:07.886Z,62.72
2023-02-15T04:59:34.302Z,63.11
2023-02-15T05:02:00.742Z,62.93
2023-02-15T05:04:27.230Z,62.82
2023-02-15T05:06:54.016Z,63.12
2023-02-15T05:09:20.441Z,62.56
2023-02-15T05:11:46.888Z,62.36
2023-02-15T05:14:13.446Z,62.59
2023-02-15T05:16:40.129Z,62.14
2023-02-15T05:19:06.690Z,62.15
2023-02-15T05:21:33.820Z,62.37
2023-02-15T05:24:00.279Z,62.40
2023-02-15T05:26:45.360Z,62.56
2023-02-15T05:29:11.924Z,62.62
2023-02-15T05:31:38.837Z,62.54
2023-02-15T05:34:05.396Z,62.82
2023-02-15T05:36:31.723Z,63.05
2023-02-15T05:38:58.065Z,63.20
2023-02-15T05:41:25.100Z,63.03
2023-02-15T05:43:51.535Z,63.01
2023-02-15T05:46:17.908Z,63.09
2023-02-15T05:48:44.297Z,62.75
2023-02-15T05:51:16.912Z,62.66
2023-02-15T05:53:43.268Z,62.58
2023-02-15T05:56:13.157Z,62.44
2023-02-15T05:58:41.439Z,62.61
2023-02-15T06:01:19.365Z,62.67
2023-02-15T06:03:46.822Z,62.64
2023-02-15T06:06:13.208Z,62.72
2023-02-15T06:08:39.744Z,62.76
2023-02-15T06:11:06.364Z,62.83
2023-02-15T06:13:33.226Z,62.92
2023-02-15T06:16:00.628Z,63.05
2023-02-15T06:18:27.514Z,63.09
2023-02-15T06:20:53.875Z,62.79
2023-02-15T06:23:20.403Z,62.68
2023-02-15T06:25:47.060Z,62.69
2023-02-15T06:28:14.003Z,63.04
2023-02-15T06:30:40.564Z,62.91
2023-02-15T06:33:07.040Z,63.08
2023-02-15T06:35:33.611Z,62.85
2023-02-15T06:37:59.975Z,62.86
2023-02-15T06:40:26.337Z,62.74
2023-02-15T06:42:52.765Z,63.08
2023-02-15T06:45:19.210Z,63.14
2023-02-15T06:47:45.682Z,63.02
2023-02-15T06:50:13.227Z,63.20
2023-02-15T06:52:39.560Z,63.26
2023-02-15T06:55:06.581Z,63.06
2023-02-15T06:57:34.053Z,63.27
2023-02-15T07:00:00.455Z,63.18
2023-02-15T07:02:26.837Z,63.15
2023-02-15T07:04:53.238Z,63.41
2023-02-15T07:07:19.899Z,63.31
2023-02-15T07:09:46.228Z,63.41
2023-02-15T07:12:30.992Z,63.54
2023-02-15T07:14:59.061Z,63.54
2023-02-15T07:17:36.905Z,63.24
2023-02-15T07:20:05.960Z,63.39
2023-02-15T07:22:34.832Z,63.38
2023-02-15T07:25:01.271Z,63.38
2023-02-15T07:27:27.700Z,63.42
2023-02-15T07:29:54.132Z,63.54
2023-02-15T07:32:20.561Z,63.44
2023-02-15T07:34:46.953Z,63.69
2023-02-15T07:37:13.328Z,63.55
2023-02-15T07:39:39.696Z,63.75
2023-02-15T07:42:06.189Z,63.42
2023-02-15T07:44:32.533Z,63.52
2023-02-15T07:46:58.840Z,63.64
2023-02-15T07:49:25.328Z,63.52
2023-02-15T07:51:51.732Z,63.94
2023-02-15T07:54:18.266Z,63.77
2023-02-15T07:56:44.700Z,63.77
2023-02-15T07:59:11.131Z,63.51
2023-02-15T08:01:39.004Z,63.71
2023-02-15T08:04:07.097Z,63.51
2023-02-15T08:06:36.140Z,63.59
2023-02-15T08:09:08.363Z,63.53
2023-02-15T08:11:40.804Z,63.11
2023-02-15T08:14:17.868Z,62.99
2023-02-15T08:16:46.832Z,62.98
2023-02-15T08:19:24.923Z,62.94
2023-02-15T08:21:52.877Z,62.78
2023-02-15T08:24:21.845Z,62.36
2023-02-15T08:26:49.563Z,62.10
2023-02-15T08:29:18.129Z,62.36
2023-02-15T08:31:45.018Z,62.30
2023-02-15T08:34:14.427Z,62.11
2023-02-15T08:36:41.131Z,61.83
2023-02-15T08:39:08.156Z,61.83
2023-02-15T08:41:36.875Z,61.89
2023-02-15T08:44:08.908Z,61.53
2023-02-15T08:46:38.591Z,61.27
2023-02-15T08:49:05.107Z,61.50
2023-02-15T08:51:34.222Z,60.88
2023-02-15T08:54:05.302Z,60.83
2023-02-15T08:56:38.087Z,60.49
2023-02-15T08:59:06.055Z,60.49
2023-02-15T09:01:34.224Z,60.54
2023-02-15T09:04:03.231Z,60.56
2023-02-15T09:06:29.884Z,60.01
2023-02-15T09:08:57.301Z,59.96
2023-02-15T09:11:26.479Z,59.90
2023-02-15T09:13:58.476Z,59.91
2023-02-15T09:16:27.639Z,60.36
2023-02-15T09:18:55.106Z,60.12
2023-02-15T09:21:24.866Z,60.22
2023-02-15T09:23:55.801Z,59.90
2023-02-15T09:26:24.190Z,60.32
2023-02-15T09:28:56.422Z,59.33
2023-02-15T09:31:26.654Z,59.39
2023-02-15T09:33:53.397Z,59.57
2023-02-15T09:36:22.492Z,59.24
2023-02-15T09:38:55.894Z,59.19
2023-02-15T09:41:50.581Z,59.39
2023-02-15T09:44:50.946Z,59.02
2023-02-15T09:47:20.236Z,59.49
2023-02-15T09:50:14.123Z,59.02
2023-02-15T09:53:02.071Z,59.15
2023-02-15T09:55:34.538Z,58.95
2023-02-15T09:58:15.930Z,59.15
2023-02-15T10:01:22.339Z,58.83
2023-02-15T10:04:28.132Z,58.47
2023-02-15T10:07:22.521Z,58.61
2023-02-15T10:10:27.355Z,58.49
2023-02-15T10:13:10.910Z,58.20
2023-02-15T10:15:54.291Z,58.51
2023-02-15T10:18:35.932Z,58.21
2023-02-15T10:21:25.721Z,58.33
2023-02-15T10:24:12.122Z,57.87
2023-02-15T10:26:47.650Z,57.93
2023-02-15T10:29:29.334Z,57.62
2023-02-15T10:32:06.320Z,57.45
2023-02-15T10:34:40.265Z,57.41
2023-02-15T10:37:21.917Z,57.05
2023-02-15T10:40:06.691Z,57.49
2023-02-15T10:43:05.290Z,57.11
2023-02-15T10:46:09.078Z,57.01
2023-02-15T10:48:56.639Z,57.20
2023-02-15T10:51:35.256Z,56.74
2023-02-15T10:54:20.616Z,56.60
2023-02-15T10:57:08.876Z,56.29
2023-02-15T10:59:54.289Z,56.46
2023-02-15T11:03:02.348Z,56.41
2023-02-15T11:06:13.139Z,56.04
2023-02-15T11:08:48.892Z,56.06
2023-02-15T11:11:25.679Z,55.72
2023-02-15T11:13:57.626Z,55.74
2023-02-15T11:16:29.873Z,55.87
2023-02-15T11:19:06.689Z,55.59
2023-02-15T11:21:39.883Z,55.13
2023-02-15T11:24:12.247Z,55.34
2023-02-15T11:26:43.624Z,54.92
2023-02-15T11:29:27.928Z,54.68
2023-02-15T11:31:58.592Z,54.52
2023-02-15T11:34:37.428Z,54.37
2023-02-15T11:37:14.576Z,54.13
2023-02-15T11:39:41.129Z,53.59
2023-02-15T11:42:17.686Z,53.67
2023-02-15T11:45:02.254Z,53.85
2023-02-15T11:47:29.152Z,53.24
2023-02-15T11:49:55.516Z,53.09
2023-02-15T11:52:21.958Z,53.00
2023-02-15T11:54:51.377Z,53.08
2023-02-15T11:57:43.357Z,52.76
2023-02-15T12:00:38.850Z,52.73
2023-02-15T12:03:29.171Z,52.50
2023-02-15T12:06:04.436Z,52.34
2023-02-15T12:08:43.160Z,52.28
2023-02-15T12:11:13.461Z,52.42
2023-02-15T12:13:56.575Z,52.08
2023-02-15T12:16:23.525Z,51.94
2023-02-15T12:18:53.372Z,52.21
2023-02-15T12:21:33.013Z,52.31
2023-02-15T12:24:04.909Z,52.15
2023-02-15T12:26:35.010Z,51.84
2023-02-15T12:29:18.862Z,51.99
2023-02-15T12:31:47.298Z,51.33
2023-02-15T12:34:42.203Z,51.71
2023-02-15T12:37:18.824Z,51.45
2023-02-15T12:39:57.254Z,51.00
2023-02-15T12:42:25.295Z,50.84
2023-02-15T12:45:02.341Z,51.30
2023-02-15T12:47:31.505Z,51.06
2023-02-15T12:50:17.793Z,51.04
2023-02-15T12:52:48.490Z,50.61
2023-02-15T12:55:21.304Z,50.89
2023-02-15T12:57:48.122Z,50.49
2023-02-15T13:00:20.562Z,50.51
2023-02-15T13:03:01.217Z,50.43
2023-02-15T13:05:36.233Z,50.28
2023-02-15T13:08:11.204Z,50.04
2023-02-15T13:10:57.200Z,50.20
2023-02-15T13:13:27.805Z,50.04
2023-02-15T13:15:59.173Z,49.63
2023-02-15T13:18:32.825Z,49.82
2023-02-15T13:21:25.067Z,49.75
2023-02-15T13:24:07.193Z,49.59
2023-02-15T13:26:35.704Z,49.04
2023-02-15T13:29:22.362Z,49.27
2023-02-15T13:31:51.681Z,48.98
2023-02-15T13:34:32.317Z,48.83
2023-02-15T13:37:14.461Z,48.90
2023-02-15T13:39:52.583Z,48.76
2023-02-15T13:42:29.841Z,48.95
2023-02-15T13:45:17.880Z,48.74
2023-02-15T13:48:34.108Z,48.77
2023-02-15T13:51:31.034Z,48.83
2023-02-15T13:54:32.838Z,48.73
2023-02-15T13:58:04.133Z,48.39
2023-02-15T14:00:41.310Z,48.69
2023-02-15T14:03:22.676Z,48.52
2023-02-15T14:06:13.106Z,48.08
2023-02-15T14:09:01.279Z,48.47
2023-02-15T14:11:36.587Z,48.41
2023-02-15T14:14:21.632Z,47.96
2023-02-15T14:17:16.196Z,48.40
2023-02-15T14:19:51.100Z,48.24
2023-02-15T14:22:40.014Z,48.13
2023-02-15T14:25:29.508Z,47.82
2023-02-15T14:28:18.385Z,47.68
2023-02-15T14:30:49.348Z,47.53
2023-02-15T14:33:16.409Z,47.60
2023-02-15T14:35:44.643Z,47.11
2023-02-15T14:38:21.330Z,47.16
2023-02-15T14:41:08.108Z,47.43
2023-02-15T14:43:37.741Z,46.96
2023-02-15T14:46:10.648Z,46.85
2023-02-15T14:48:59.583Z,47.24
2023-02-15T14:51:41.199Z,47.03
2023-02-15T14:54:09.063Z,46.60
2023-02-15T14:56:36.226Z,46.63
2023-02-15T14:59:19.041Z,46.84
2023-02-15T15:01:58.264Z,46.90
2023-02-15T15:04:30.901Z,46.77
2023-02-15T15:07:08.635Z,46.79
2023-02-15T15:09:38.634Z,46.92
2023-02-15T15:12:16.063Z,46.89
2023-02-15T15:14:46.721Z,46.98
2023-02-15T15:17:33.406Z,47.29
2023-02-15T15:20:14.745Z,47.16
2023-02-15T15:22:44.719Z,47.10
2023-02-15T15:25:13.035Z,46.97
2023-02-15T15:27:55.024Z,47.35
2023-02-15T15:30:21.447Z,47.36
2023-02-15T15:32:57.634Z,47.30
2023-02-15T15:35:46.083Z,47.80
2023-02-15T15:38:18.422Z,47.82
2023-02-15T15:41:17.312Z,47.82
2023-02-15T15:43:52.749Z,47.59
2023-02-15T15:46:50.375Z,47.99
2023-02-15T15:49:22.048Z,48.03
2023-02-15T15:51:49.855Z,48.06
2023-02-15T15:54:22.453Z,48.29
2023-02-15T15:57:01.845Z,48.13
2023-02-15T15:59:35.368Z,48.52
2023-02-15T16:02:08.114Z,48.52
2023-02-15T16:04:35.671Z,48.56
2023-02-15T16:07:17.363Z,48.60
2023-02-15T16:09:55.915Z,48.56
2023-02-15T16:12:23.846Z,48.91
2023-02-15T16:14:52.633Z,48.68
2023-02-15T16:17:22.989Z,49.02
2023-02-15T16:19:51.246Z,48.95
2023-02-15T16:22:24.273Z,49.20
2023-02-15T16:25:12.482Z,49.34
2023-02-15T16:27:44.569Z,49.23
2023-02-15T16:30:31.875Z,49.63
2023-02-15T16:33:17.650Z,49.56
2023-02-15T16:35:58.527Z,49.67
2023-02-15T16:38:43.225Z,49.73
2023-02-15T16:41:13.778Z,49.84
2023-02-15T16:43:42.261Z,49.97
2023-02-15T16:46:16.711Z,50.11
2023-02-15T16:48:48.674Z,50.04
2023-02-15T16:51:42.761Z,50.46
2023-02-15T16:54:18.613Z,50.41
2023-02-15T16:56:47.000Z,50.72
2023-02-15T16:59:44.312Z,50.33
2023-02-15T17:02:40.207Z,50.28
2023-02-15T17:05:10.614Z,50.62
2023-02-15T17:07:42.393Z,50.49
2023-02-15T17:10:31.818Z,50.78
2023-02-15T17:13:17.866Z,50.91
2023-02-15T17:16:05.843Z,50.99
2023-02-15T17:18:39.485Z,51.19
2023-02-15T17:21:18.319Z,51.17
2023-02-15T17:23:50.852Z,51.40
2023-02-15T17:26:32.914Z,51.49
2023-02-15T17:29:02.668Z,51.45
2023-02-15T17:31:33.359Z,51.64
2023-02-15T17:34:01.177Z,51.61
2023-02-15T17:36:30.234Z,51.68
2023-02-15T17:39:01.673Z,51.93
2023-02-15T17:41:34.998Z,51.78
2023-02-15T17:44:03.697Z,51.98
2023-02-15T17:46:35.478Z,51.83
2023-02-15T17:49:02.200Z,52.01
2023-02-15T17:51:28.760Z,52.16
2023-02-15T17:54:13.766Z,52.15
2023-02-15T17:56:40.190Z,52.31
2023-02-15T17:59:11.336Z,52.34
2023-02-15T18:02:04.208Z,52.46
2023-02-15T18:04:50.944Z,52.57
2023-02-15T18:07:37.654Z,52.61
2023-02-15T18:10:32.589Z,52.53
2023-02-15T18:12:59.066Z,52.73
2023-02-15T18:15:25.929Z,53.02
2023-02-15T18:17:52.529Z,52.94
2023-02-15T18:20:31.737Z,53.04
2023-02-15T18:22:58.165Z,53.11
2023-02-15T18:25:25.396Z,53.33
2023-02-15T18:27:54.941Z,53.38
2023-02-15T18:30:24.046Z,53.21
2023-02-15T18:32:53.067Z,52.93
2023-02-15T18:35:23.680Z,53.45
2023-02-15T18:37:52.176Z,53.30
2023-02-15T18:40:29.091Z,53.35
2023-02-15T18:42:56.968Z,53.56
2023-02-15T18:45:32.396Z,53.49
2023-02-15T18:47:59.180Z,53.69
2023-02-15T18:50:28.996Z,53.82
2023-02-15T18:52:55.426Z,53.92
2023-02-15T18:55:25.840Z,54.38
2023-02-15T18:57:54.717Z,54.24
2023-02-15T19:00:29.750Z,54.40
2023-02-15T19:02:56.943Z,54.13
2023-02-15T19:05:24.621Z,54.16
2023-02-15T19:07:51.581Z,54.47
2023-02-15T19:10:25.287Z,54.60
2023-02-15T19:12:52.929Z,54.81
2023-02-15T19:15:25.187Z,54.59
2023-02-15T19:17:52.342Z,54.95
2023-02-15T19:20:20.179Z,54.92
2023-02-15T19:22:51.697Z,54.62
2023-02-15T19:25:24.977Z,54.55
2023-02-15T19:27:53.557Z,55.05
2023-02-15T19:30:29.779Z,54.70
2023-02-15T19:32:57.841Z,55.03
2023-02-15T19:35:29.006Z,54.87
2023-02-15T19:38:01.718Z,54.74
2023-02-15T19:40:34.061Z,54.95
2023-02-15T19:43:03.677Z,55.16
2023-02-15T19:45:31.848Z,55.34
2023-02-15T19:48:01.297Z,55.20
2023-02-15T19:50:33.197Z,55.30
2023-02-15T19:53:01.703Z,54.88
2023-02-15T19:55:33.396Z,55.33
2023-02-15T19:58:01.246Z,55.30
2023-02-15T20:00:30.807Z,55.62
2023-02-15T20:02:59.196Z,55.64
2023-02-15T20:05:30.400Z,55.42
2023-02-15T20:07:58.388Z,55.87
2023-02-15T20:10:28.715Z,55.74
2023-02-15T20:12:55.762Z,55.83
2023-02-15T20:15:27.098Z,55.66
2023-02-15T20:17:54.303Z,56.22
2023-02-15T20:20:22.525Z,55.89
2023-02-15T20:22:51.654Z,55.73
2023-02-15T20:25:21.060Z,55.91
2023-02-15T20:27:48.012Z,56.03
2023-02-15T20:30:16.878Z,55.65
2023-02-15T20:32:43.551Z,55.67
2023-02-15T20:35:18.064Z,55.87
2023-02-15T20:37:54.618Z,55.83
2023-02-15T20:40:30.423Z,56.19
2023-02-15T20:42:57.217Z,56.10
2023-02-15T20:45:28.611Z,55.45
2023-02-15T20:47:55.420Z,56.10
2023-02-15T20:50:24.808Z,56.34
2023-02-15T20:52:52.882Z,55.95
2023-02-15T20:55:22.088Z,56.40
2023-02-15T20:57:48.898Z,56.49
2023-02-15T21:00:19.128Z,56.82
2023-02-15T21:02:52.861Z,56.84
2023-02-15T21:05:25.283Z,57.10
2023-02-15T21:07:52.952Z,56.89
2023-02-15T21:10:24.620Z,56.89
2023-02-15T21:12:51.833Z,56.99
2023-02-15T21:15:34.347Z,57.13
2023-02-15T21:18:06.525Z,56.67
2023-02-15T21:20:35.026Z,57.29
2023-02-15T21:23:05.049Z,57.04
2023-02-15T21:25:36.798Z,56.65
2023-02-15T21:28:08.263Z,57.06
2023-02-15T21:30:34.770Z,57.13
2023-02-15T21:33:01.182Z,57.20
2023-02-15T21:35:28.658Z,57.12
2023-02-15T21:37:56.126Z,56.98
2023-02-15T21:40:29.851Z,57.37
2023-02-15T21:43:15.883Z,57.14
2023-02-15T21:46:01.298Z,57.38
2023-02-15T21:48:27.793Z,57.11
2023-02-15T21:51:13.536Z,57.62
2023-02-15T21:53:42.654Z,57.37
2023-02-15T21:56:13.282Z,57.34
2023-02-15T21:58:40.237Z,57.64
2023-02-15T22:01:21.216Z,57.99
2023-02-15T22:03:48.256Z,58.13
2023-02-15T22:06:17.214Z,58.18
2023-02-15T22:08:47.219Z,58.18
2023-02-15T22:11:17.858Z,57.90
2023-02-15T22:13:47.486Z,57.93
2023-02-15T22:16:21.645Z,57.82
2023-02-15T22:18:49.170Z,58.01
2023-02-15T22:21:22.025Z,58.04
2023-02-15T22:23:54.698Z,58.03
2023-02-15T22:26:30.040Z,58.28
2023-02-15T22:29:07.223Z,58.50
2023-02-15T22:31:39.214Z,58.36
2023-02-15T22:34:23.052Z,58.40
2023-02-15T22:37:04.889Z,57.94
2023-02-15T22:39:31.671Z,57.76
2023-02-15T22:42:02.901Z,58.10
2023-02-15T22:44:37.646Z,58.22
2023-02-15T22:47:05.600Z,58.19
2023-02-15T22:49:32.556Z,58.32
2023-02-15T22:52:01.700Z,57.98
2023-02-15T22:54:28.803Z,58.45
2023-02-15T22:56:58.673Z,57.97
2023-02-15T22:59:32.958Z,58.39
2023-02-15T23:02:01.112Z,58.41
2023-02-15T23:04:36.243Z,58.10
2023-02-15T23:07:23.270Z,58.50
2023-02-15T23:09:58.274Z,58.32
2023-02-15T23:12:55.272Z,58.25
2023-02-15T23:18:26.403Z,58.09
2023-02-15T23:21:02.250Z,58.21
2023-02-15T23:23:41.014Z,58.21
2023-02-15T23:26:29.536Z,58.12
2023-02-15T23:29:04.730Z,58.23
2023-02-15T23:31:36.822Z,58.24
2023-02-15T23:34:14.950Z,58.47
2023-02-15T23:36:45.244Z,58.59
2023-02-15T23:39:41.646Z,58.46
2023-02-15T23:42:24.525Z,58.48
2023-02-15T23:44:57.100Z,58.87
2023-02-15T23:47:47.684Z,58.78
2023-02-15T23:50:24.212Z,58.54
2023-02-15T23:52:52.796Z,58.53
2023-02-15T23:55:21.167Z,58.60
2023-02-15T23:57:48.416Z,58.91
